Time;durP1;ratioP1;P1;durP2;ratioP2;P2;SDS_P1;SDS_P2;PMS_P1;PMS_P2;Temp;Humidity;BMP_temperature;BMP_pressure;BME280_temperature;BME280_humidity;BME280_pressure;Samples;Min_cycle;Max_cycle;Signal;HPM_P1;HPM_P2
2022/03/23 00:01:34;;;;;;;16.88;12.63;;;8.50;99.90;;;;;;5056481;28;20029;-68
2022/03/23 00:04:00;;;;;;;22.10;13.20;;;8.30;99.90;;;;;;5056218;28;20013;-67
2022/03/23 00:06:27;;;;;;;19.42;13.00;;;8.20;99.90;;;;;;5055958;28;20052;-67
2022/03/23 00:08:53;;;;;;;21.17;13.10;;;8.10;99.90;;;;;;5056118;28;20393;-67
2022/03/23 00:11:19;;;;;;;19.38;11.85;;;8.10;99.90;;;;;;5056031;28;20104;-67
2022/03/23 00:13:45;;;;;;;18.27;12.25;;;8.10;99.90;;;;;;5056043;28;20362;-67
2022/03/23 00:16:10;;;;;;;17.95;11.07;;;8.10;99.90;;;;;;5055949;28;20032;-67
2022/03/23 00:18:36;;;;;;;17.70;10.75;;;8.10;99.90;;;;;;5055967;28;20446;-67
2022/03/23 00:21:02;;;;;;;17.40;10.27;;;8.10;99.90;;;;;;5056176;28;20051;-67
2022/03/23 00:23:28;;;;;;;17.75;10.90;;;8.20;99.90;;;;;;5055811;28;20085;-67
2022/03/23 00:25:54;;;;;;;18.27;10.93;;;8.30;99.90;;;;;;5055834;28;20033;-67
2022/03/23 00:28:19;;;;;;;15.57;10.40;;;8.30;99.90;;;;;;5055739;28;20036;-66
2022/03/23 00:30:47;;;;;;;18.58;11.73;;;8.20;99.90;;;;;;5055571;28;20029;-67
2022/03/23 00:33:14;;;;;;;18.65;11.52;;;8.10;99.90;;;;;;5055702;28;20017;-67
2022/03/23 00:35:41;;;;;;;17.30;11.35;;;8.00;99.90;;;;;;5055874;28;20527;-67
2022/03/23 00:38:07;;;;;;;20.55;12.32;;;8.00;99.90;;;;;;5055146;28;20371;-67
2022/03/23 00:40:33;;;;;;;20.00;11.27;;;8.00;99.90;;;;;;5055561;28;20057;-67
2022/03/23 00:43:01;;;;;;;17.38;11.70;;;8.00;99.90;;;;;;5055460;28;20025;-67
2022/03/23 00:45:28;;;;;;;16.50;11.05;;;7.90;99.90;;;;;;5055468;28;20025;-67
2022/03/23 00:47:54;;;;;;;16.58;10.43;;;8.00;99.90;;;;;;5055410;28;20047;-67
2022/03/23 00:50:20;;;;;;;16.67;10.02;;;8.00;99.90;;;;;;5055332;28;20061;-67
2022/03/23 00:52:47;;;;;;;15.73;10.85;;;8.10;99.90;;;;;;5055293;28;20021;-67
2022/03/23 00:55:14;;;;;;;17.63;10.32;;;8.00;99.90;;;;;;5055467;28;20045;-67
2022/03/23 00:57:41;;;;;;;15.00;9.85;;;8.00;99.90;;;;;;5055214;28;20075;-67
2022/03/23 01:00:12;;;;;;;17.02;9.85;;;8.00;99.90;;;;;;5055435;28;20021;-67
2022/03/23 01:02:39;;;;;;;17.52;10.82;;;8.10;99.90;;;;;;5055467;28;20057;-67
2022/03/23 01:05:05;;;;;;;16.70;9.98;;;8.00;99.90;;;;;;5054947;28;20409;-67
2022/03/23 01:07:31;;;;;;;16.35;9.80;;;7.90;99.90;;;;;;5054974;28;20041;-67
2022/03/23 01:09:56;;;;;;;18.33;10.38;;;7.90;99.90;;;;;;5054933;28;20533;-67
2022/03/23 01:12:22;;;;;;;17.77;10.07;;;7.90;99.90;;;;;;5054965;28;20029;-67
2022/03/23 01:14:48;;;;;;;16.50;10.90;;;7.90;99.90;;;;;;5054864;28;20032;-67
2022/03/23 01:17:13;;;;;;;18.27;10.13;;;7.90;99.90;;;;;;5054859;28;20384;-67
2022/03/23 01:19:40;;;;;;;14.65;10.25;;;7.90;99.90;;;;;;5055117;28;20080;-67
2022/03/23 01:22:06;;;;;;;15.43;10.45;;;7.90;99.90;;;;;;5055088;28;20029;-67
2022/03/23 01:24:32;;;;;;;14.48;10.05;;;7.90;99.90;;;;;;5054736;28;20028;-67
2022/03/23 01:27:00;;;;;;;17.85;10.43;;;7.90;99.90;;;;;;5054653;28;20040;-67
2022/03/23 01:29:26;;;;;;;14.13;9.90;;;7.90;99.90;;;;;;5054831;28;20017;-67
2022/03/23 01:31:52;;;;;;;18.23;10.32;;;7.90;99.90;;;;;;5054582;28;20020;-67
2022/03/23 01:34:17;;;;;;;16.25;10.43;;;7.70;99.90;;;;;;5054823;28;20095;-67
2022/03/23 01:36:43;;;;;;;14.25;9.85;;;7.60;99.90;;;;;;5054750;28;20032;-67
2022/03/23 01:39:09;;;;;;;15.82;10.45;;;7.40;99.90;;;;;;5054685;28;20425;-67
2022/03/23 01:41:36;;;;;;;16.60;10.77;;;7.50;99.90;;;;;;5054670;28;20104;-67
2022/03/23 01:44:19;;;;;;;16.05;9.48;;;7.70;99.90;;;;;;5054564;28;20075;-67
2022/03/23 01:47:11;;;;;;;18.63;10.30;;;7.80;99.90;;;;;;5054361;28;20035;-67
2022/03/23 01:49:41;;;;;;;16.65;10.25;;;7.90;99.90;;;;;;5053423;28;20024;-67
2022/03/23 01:52:10;;;;;;;15.00;9.73;;;7.80;99.90;;;;;;5054236;28;20048;-66
2022/03/23 01:54:38;;;;;;;16.55;10.70;;;7.70;99.90;;;;;;5054312;28;20047;-67
2022/03/23 01:57:05;;;;;;;17.05;10.15;;;7.60;99.90;;;;;;5054038;28;20013;-67
2022/03/23 01:59:32;;;;;;;16.45;10.88;;;7.40;99.90;;;;;;5054273;28;20036;-67
2022/03/23 02:01:58;;;;;;;19.52;11.82;;;7.30;99.90;;;;;;5053975;28;20129;-67
2022/03/23 02:04:24;;;;;;;17.75;10.85;;;7.20;99.90;;;;;;5053910;28;20087;-67
2022/03/23 02:06:50;;;;;;;15.55;10.35;;;7.10;99.90;;;;;;5053722;28;20060;-67
2022/03/23 02:09:16;;;;;;;17.05;10.73;;;7.10;99.90;;;;;;5054062;28;20040;-67
2022/03/23 02:11:43;;;;;;;15.50;10.52;;;7.20;99.90;;;;;;5054058;28;20032;-67
2022/03/23 02:14:09;;;;;;;16.85;10.85;;;7.20;99.90;;;;;;5053752;28;20031;-67
2022/03/23 02:16:53;;;;;;;17.77;11.52;;;7.10;99.90;;;;;;5053697;28;20029;-66
2022/03/23 02:19:21;;;;;;;17.13;10.82;;;7.20;99.90;;;;;;5054239;28;20025;-67
2022/03/23 02:21:55;;;;;;;18.58;11.05;;;7.10;99.90;;;;;;5053939;28;20021;-67
2022/03/23 02:24:25;;;;;;;19.00;12.15;;;7.10;99.90;;;;;;5053898;28;20090;-67
2022/03/23 02:26:51;;;;;;;;;;;7.00;99.90;;;;;;5054280;28;20021;-67
2022/03/23 02:29:19;;;;;;;17.17;10.73;;;6.90;99.90;;;;;;5053481;28;20274;-67
2022/03/23 02:31:45;;;;;;;17.98;11.00;;;6.80;99.90;;;;;;5054056;28;20025;-67
2022/03/23 02:34:12;;;;;;;18.25;10.60;;;6.80;99.90;;;;;;5053745;28;20024;-67
2022/03/23 02:36:38;;;;;;;17.85;10.77;;;6.90;99.90;;;;;;5053423;28;20032;-67
2022/03/23 02:39:03;;;;;;;16.52;10.82;;;6.90;99.90;;;;;;5053424;28;20032;-67
2022/03/23 02:41:29;;;;;;;19.33;11.00;;;7.00;99.90;;;;;;5053319;28;20406;-66
2022/03/23 02:43:55;;;;;;;17.33;10.65;;;7.10;99.90;;;;;;5053303;28;20096;-66
2022/03/23 02:46:21;;;;;;;18.73;10.27;;;7.20;99.90;;;;;;5053297;28;20081;-67
2022/03/23 02:48:48;;;;;;;16.63;10.63;;;7.20;99.90;;;;;;5053289;28;20033;-67
2022/03/23 02:51:14;;;;;;;16.02;11.18;;;7.10;99.90;;;;;;5053211;28;20097;-67
2022/03/23 03:02:28;;;;;;;14.95;9.75;;;6.90;99.90;;;;;;5053034;28;20043;-67
2022/03/23 03:04:54;;;;;;;15.60;9.90;;;7.10;99.90;;;;;;5053715;28;20424;-67
2022/03/23 03:07:19;;;;;;;15.27;10.52;;;7.00;99.90;;;;;;5052631;28;20041;-67
2022/03/23 03:09:46;;;;;;;16.55;11.00;;;7.00;99.90;;;;;;5052984;28;20029;-67
2022/03/23 03:12:11;;;;;;;15.00;10.60;;;7.00;99.90;;;;;;5053360;28;20017;-67
2022/03/23 03:14:40;;;;;;;17.10;11.27;;;7.00;99.90;;;;;;5053599;28;20021;-67
2022/03/23 03:17:07;;;;;;;16.83;10.85;;;7.10;99.90;;;;;;5053293;28;20029;-67
2022/03/23 03:19:33;;;;;;;16.63;11.48;;;7.00;99.90;;;;;;5035029;28;20572;-66
2022/03/23 03:21:59;;;;;;;17.52;11.10;;;7.00;99.90;;;;;;5052924;28;20370;-67
2022/03/23 03:24:25;;;;;;;14.85;10.50;;;7.00;99.90;;;;;;5053171;28;20083;-66
2022/03/23 03:26:52;;;;;;;16.48;10.52;;;6.90;99.90;;;;;;5053192;28;20025;-67
2022/03/23 03:29:18;;;;;;;17.55;11.00;;;6.80;99.90;;;;;;5052765;28;20063;-66
2022/03/23 03:31:44;;;;;;;16.52;10.52;;;6.60;99.90;;;;;;5053114;28;20033;-67
2022/03/23 03:34:09;;;;;;;15.35;9.68;;;6.80;99.90;;;;;;5053138;28;20485;-67
2022/03/23 03:36:36;;;;;;;19.95;10.73;;;6.90;99.90;;;;;;5053072;28;20378;-67
2022/03/23 03:39:03;;;;;;;17.15;11.25;;;7.00;99.90;;;;;;5052766;28;20024;-67
2022/03/23 03:41:29;;;;;;;17.20;10.63;;;7.00;99.90;;;;;;5052734;28;20122;-67
2022/03/23 03:43:56;;;;;;;20.98;10.63;;;7.00;99.90;;;;;;5052735;28;20025;-67
2022/03/23 03:46:22;;;;;;;18.85;11.30;;;6.90;99.90;;;;;;5052695;28;20385;-67
2022/03/23 03:48:47;;;;;;;17.60;11.52;;;6.90;99.90;;;;;;5052940;28;20029;-67
2022/03/23 03:51:13;;;;;;;16.77;11.32;;;6.80;99.90;;;;;;5053190;28;20131;-67
2022/03/23 03:53:39;;;;;;;18.25;10.77;;;6.70;99.90;;;;;;5052899;28;20035;-67
2022/03/23 03:56:05;;;;;;;16.70;11.00;;;6.60;99.90;;;;;;5052609;28;20071;-67
2022/03/23 03:58:30;;;;;;;19.02;11.07;;;6.60;99.90;;;;;;5052855;28;20603;-66
2022/03/23 04:00:56;;;;;;;19.38;11.77;;;6.50;99.90;;;;;;5052627;28;20040;-67
2022/03/23 04:03:22;;;;;;;19.30;11.25;;;6.50;99.90;;;;;;5052806;28;20517;-67
2022/03/23 04:05:47;;;;;;;19.73;12.38;;;6.50;99.90;;;;;;5052529;28;20540;-67
2022/03/23 04:08:13;;;;;;;21.88;12.40;;;6.40;99.90;;;;;;5052575;28;20017;-66
2022/03/23 04:10:39;;;;;;;20.00;12.00;;;6.30;99.90;;;;;;5052420;28;20104;-66
2022/03/23 04:13:08;;;;;;;19.08;12.38;;;6.30;99.90;;;;;;5053425;28;20495;-67
2022/03/23 04:15:35;;;;;;;16.65;11.70;;;6.00;99.90;;;;;;5055982;28;20103;-67
2022/03/23 04:18:00;;;;;;;26.00;13.35;;;6.10;99.90;;;;;;5056278;28;20021;-67
2022/03/23 04:20:27;;;;;;;19.80;12.32;;;5.90;99.90;;;;;;5055923;28;20055;-67
2022/03/23 04:22:53;;;;;;;19.88;12.38;;;5.80;99.90;;;;;;5056222;28;20021;-67
2022/03/23 04:25:19;;;;;;;21.08;12.57;;;5.70;99.90;;;;;;5055876;28;20031;-67
2022/03/23 04:27:50;;;;;;;20.90;12.65;;;5.70;99.90;;;;;;5056078;28;20031;-67
2022/03/23 04:30:17;;;;;;;20.95;13.18;;;5.60;99.90;;;;;;5055730;28;20032;-67
2022/03/23 04:32:45;;;;;;;20.02;12.75;;;5.60;99.90;;;;;;5056291;28;20013;-67
2022/03/23 04:35:12;;;;;;;21.80;13.50;;;5.70;99.90;;;;;;5055725;28;20025;-67
2022/03/23 04:37:39;;;;;;;20.83;13.38;;;5.60;99.90;;;;;;5055935;28;20386;-66
2022/03/23 04:40:05;;;;;;;19.45;11.95;;;5.50;99.90;;;;;;5055639;28;20021;-66
2022/03/23 04:42:31;;;;;;;21.52;13.27;;;5.50;99.90;;;;;;5055478;28;20068;-67
2022/03/23 04:44:57;;;;;;;19.98;12.93;;;5.50;99.90;;;;;;5055510;28;20075;-66
2022/03/23 04:47:23;;;;;;;20.98;12.48;;;5.40;99.90;;;;;;5055700;28;20029;-67
2022/03/23 04:49:48;;;;;;;18.98;12.27;;;5.40;99.90;;;;;;5055597;28;20033;-67
2022/03/23 04:52:16;;;;;;;19.38;12.18;;;5.40;99.90;;;;;;5055370;28;20055;-66
2022/03/23 04:54:43;;;;;;;18.77;11.77;;;5.40;99.90;;;;;;5055245;28;20501;-67
2022/03/23 04:57:09;;;;;;;18.90;12.38;;;5.40;99.90;;;;;;5055252;28;20028;-67
2022/03/23 04:59:34;;;;;;;19.40;12.32;;;5.20;99.90;;;;;;5055183;28;20048;-67
2022/03/23 05:02:00;;;;;;;19.10;11.93;;;5.10;99.90;;;;;;5055174;28;20021;-66
2022/03/23 05:04:26;;;;;;;19.15;12.25;;;5.00;99.90;;;;;;5055725;28;20025;-66
2022/03/23 05:06:51;;;;;;;21.13;13.18;;;4.90;99.90;;;;;;5054897;28;20529;-68
2022/03/23 05:09:17;;;;;;;20.67;12.65;;;5.00;99.90;;;;;;5055645;28;20250;-66
2022/03/23 05:11:43;;;;;;;19.20;12.70;;;5.00;99.90;;;;;;5055185;28;20029;-67
2022/03/23 05:14:08;;;;;;;25.73;13.30;;;4.90;99.90;;;;;;5055194;28;20487;-67
2022/03/23 05:16:34;;;;;;;21.73;12.52;;;4.80;99.90;;;;;;5055196;28;20021;-66
2022/03/23 05:18:59;;;;;;;20.42;12.15;;;4.80;99.90;;;;;;5054853;28;20025;-67
2022/03/23 05:21:25;;;;;;;21.08;12.63;;;4.80;99.90;;;;;;5054839;28;20047;-67
2022/03/23 05:23:51;;;;;;;22.08;13.50;;;4.90;99.90;;;;;;5054312;28;20071;-67
2022/03/23 05:26:17;;;;;;;21.20;13.63;;;4.90;99.90;;;;;;5054303;28;20021;-67
2022/03/23 05:28:43;;;;;;;20.05;12.77;;;4.90;99.90;;;;;;5054961;28;20025;-67
2022/03/23 05:31:09;;;;;;;21.88;14.35;;;5.00;99.90;;;;;;5054572;28;20029;-66
2022/03/23 05:33:36;;;;;;;19.55;12.32;;;5.10;99.90;;;;;;5054582;28;20017;-66
2022/03/23 05:36:02;;;;;;;20.70;13.05;;;5.20;99.90;;;;;;5054543;28;20047;-67
2022/03/23 05:38:28;;;;;;;21.10;12.95;;;5.20;99.90;;;;;;5036581;28;20452;-67
2022/03/23 05:40:54;;;;;;;19.77;11.90;;;5.00;99.90;;;;;;5054429;28;20021;-67
2022/03/23 05:43:19;;;;;;;21.67;13.10;;;5.00;99.90;;;;;;5054378;28;20021;-66
2022/03/23 05:45:46;;;;;;;24.45;13.02;;;4.80;99.90;;;;;;5054348;28;20055;-67
2022/03/23 05:48:11;;;;;;;21.63;13.07;;;4.70;99.90;;;;;;5054264;28;20029;-67
2022/03/23 05:50:37;;;;;;;29.27;14.80;;;4.70;99.90;;;;;;5054447;28;20025;-67
2022/03/23 05:53:03;;;;;;;22.83;12.85;;;4.60;99.90;;;;;;5054173;28;20054;-67
2022/03/23 05:55:29;;;;;;;21.60;12.70;;;4.70;99.90;;;;;;5054362;28;20028;-67
2022/03/23 05:57:55;;;;;;;35.70;13.20;;;4.70;99.90;;;;;;5054120;28;20047;-67
2022/03/23 06:00:21;;;;;;;22.52;13.90;;;4.70;99.90;;;;;;5054079;28;20552;-66
2022/03/23 06:02:47;;;;;;;19.58;11.85;;;4.90;99.90;;;;;;5054035;28;20428;-66
2022/03/23 06:05:13;;;;;;;18.73;11.95;;;4.80;99.90;;;;;;5053773;28;20027;-67
2022/03/23 06:07:39;;;;;;;24.02;13.45;;;5.00;99.90;;;;;;5053949;28;20397;-67
2022/03/23 06:10:08;;;;;;;17.65;11.65;;;5.10;99.90;;;;;;5054093;28;20477;-66
2022/03/23 06:12:34;;;;;;;18.58;12.52;;;5.20;99.90;;;;;;5054097;28;20028;-67
2022/03/23 06:15:00;;;;;;;22.02;13.10;;;5.20;99.90;;;;;;5054023;28;20019;-66
2022/03/23 06:17:25;;;;;;;19.08;12.05;;;5.20;99.90;;;;;;5053719;28;20065;-66
2022/03/23 06:19:51;;;;;;;19.98;12.18;;;5.40;99.90;;;;;;5053755;28;20021;-66
2022/03/23 06:22:18;;;;;;;18.67;12.38;;;5.50;99.90;;;;;;5053947;28;20036;-67
2022/03/23 06:24:43;;;;;;;19.73;12.40;;;5.50;99.90;;;;;;5053921;28;20028;-67
2022/03/23 06:27:09;;;;;;;20.35;12.48;;;5.60;99.90;;;;;;5053571;28;20025;-66
2022/03/23 06:29:35;;;;;;;18.42;13.05;;;5.70;99.90;;;;;;5053449;28;20029;-67
2022/03/23 06:32:00;;;;;;;18.58;11.90;;;5.80;99.90;;;;;;5053539;28;20036;-67
2022/03/23 06:34:26;;;;;;;19.73;11.73;;;6.00;99.90;;;;;;5053757;28;20103;-67
2022/03/23 06:36:52;;;;;;;20.20;12.10;;;6.20;99.90;;;;;;5053099;28;20401;-67
2022/03/23 06:39:17;;;;;;;21.77;12.32;;;6.20;99.90;;;;;;5053430;28;20021;-67
2022/03/23 06:41:43;;;;;;;16.90;11.10;;;6.30;99.90;;;;;;5053375;28;20033;-67
2022/03/23 06:44:09;;;;;;;38.90;14.88;;;6.50;99.90;;;;;;5053295;28;20023;-67
2022/03/23 06:46:34;;;;;;;17.48;12.02;;;6.70;99.90;;;;;;5053339;28;20465;-67
2022/03/23 06:49:00;;;;;;;19.42;12.20;;;6.80;99.90;;;;;;5053288;28;20465;-67
2022/03/23 06:51:26;;;;;;;18.10;11.38;;;6.90;99.90;;;;;;5053181;28;20061;-67
2022/03/23 06:53:51;;;;;;;19.40;12.82;;;6.90;99.90;;;;;;5053250;28;20017;-67
2022/03/23 06:56:18;;;;;;;18.50;11.32;;;7.00;99.90;;;;;;5053129;28;20086;-67
2022/03/23 06:58:44;;;;;;;18.23;11.43;;;7.10;99.90;;;;;;5053209;28;20055;-66
2022/03/23 07:01:10;;;;;;;19.80;11.70;;;7.20;99.90;;;;;;5053438;28;20029;-66
2022/03/23 07:03:35;;;;;;;18.38;12.43;;;7.30;99.90;;;;;;5053098;28;20107;-67
2022/03/23 07:06:01;;;;;;;17.70;10.68;;;7.50;99.90;;;;;;5053032;28;20044;-67
2022/03/23 07:11:11;;;;;;;17.98;10.63;;;7.80;99.90;;;;;;5053100;28;20055;-67
2022/03/23 07:13:37;;;;;;;14.48;10.30;;;8.00;99.90;;;;;;5053552;28;20017;-67
2022/03/23 07:16:03;;;;;;;19.52;11.02;;;8.10;99.90;;;;;;5053271;28;20032;-66
2022/03/23 07:18:28;;;;;;;17.10;10.75;;;8.20;99.90;;;;;;5052950;28;20056;-66
2022/03/23 07:20:54;;;;;;;15.80;10.35;;;8.30;99.90;;;;;;5053000;28;20036;-66
2022/03/23 07:23:20;;;;;;;18.38;11.27;;;8.50;99.90;;;;;;5053003;28;20021;-67
2022/03/23 07:25:45;;;;;;;16.85;10.35;;;8.60;99.90;;;;;;5052984;28;20064;-67
2022/03/23 07:28:11;;;;;;;17.67;10.88;;;8.80;99.90;;;;;;5052871;28;20397;-67
2022/03/23 07:30:39;;;;;;;17.17;9.93;;;8.90;99.90;;;;;;5052777;28;20489;-67
2022/03/23 07:33:06;;;;;;;18.23;11.02;;;9.00;99.90;;;;;;5052884;28;20103;-67
2022/03/23 07:35:32;;;;;;;13.60;9.90;;;9.20;99.90;;;;;;5053379;28;20021;-67
2022/03/23 07:37:58;;;;;;;15.10;10.63;;;9.40;99.90;;;;;;5052762;28;20367;-69
2022/03/23 07:40:24;;;;;;;17.75;10.30;;;9.60;99.90;;;;;;5052723;28;20032;-68
2022/03/23 07:42:50;;;;;;;17.05;10.55;;;9.70;99.90;;;;;;5052744;28;20024;-67
2022/03/23 07:45:16;;;;;;;15.70;9.90;;;9.80;99.90;;;;;;5052993;28;20036;-67
2022/03/23 07:47:41;;;;;;;14.43;10.35;;;10.00;99.90;;;;;;5053135;28;20036;-68
2022/03/23 07:50:08;;;;;;;15.40;10.82;;;10.20;99.90;;;;;;5056451;28;20025;-67
2022/03/23 07:52:34;;;;;;;15.30;10.13;;;10.50;99.90;;;;;;5056425;28;20017;-68
2022/03/23 07:55:02;;;;;;;15.10;10.40;;;10.70;99.90;;;;;;5056651;28;20029;-67
2022/03/23 07:57:28;;;;;;;15.13;9.85;;;11.10;99.90;;;;;;5056668;28;20080;-67
2022/03/23 07:59:58;;;;;;;13.20;9.23;;;11.80;99.90;;;;;;5056349;28;20496;-68
2022/03/23 08:02:25;;;;;;;12.55;8.95;;;15.50;99.90;;;;;;5056566;28;20019;-68
2022/03/23 08:04:51;;;;;;;13.32;8.23;;;19.20;93.20;;;;;;5056296;28;20037;-68
2022/03/23 08:07:17;;;;;;;12.23;8.30;;;21.20;82.20;;;;;;5055828;28;20414;-68
2022/03/23 08:09:42;;;;;;;10.38;8.50;;;22.80;73.60;;;;;;5056405;28;20107;-68
2022/03/23 08:12:09;;;;;;;13.35;8.25;;;24.00;67.00;;;;;;5056418;28;20057;-68
2022/03/23 08:14:35;;;;;;;10.52;7.97;;;25.00;61.50;;;;;;5056702;28;20021;-69
2022/03/23 08:17:00;;;;;;;10.20;7.30;;;25.70;58.50;;;;;;5056075;28;20024;-69
2022/03/23 08:19:26;;;;;;;11.20;7.53;;;26.20;54.90;;;;;;5056021;28;20025;-69
2022/03/23 08:21:52;;;;;;;13.23;7.72;;;26.80;52.60;;;;;;5056269;28;20021;-69
2022/03/23 08:24:18;;;;;;;11.60;7.72;;;27.50;50.20;;;;;;5055902;28;20025;-70
2022/03/23 08:26:44;;;;;;;9.07;7.00;;;28.00;47.90;;;;;;5056137;28;20029;-69
2022/03/23 08:29:10;;;;;;;9.70;7.43;;;27.90;45.70;;;;;;5055859;28;20389;-70
2022/03/23 08:31:36;;;;;;;10.20;7.40;;;28.60;44.50;;;;;;5055946;28;20021;-70
2022/03/23 08:34:03;;;;;;;11.65;7.55;;;28.60;44.50;;;;;;5055714;28;20075;-70
2022/03/23 08:36:29;;;;;;;9.75;7.40;;;29.10;43.40;;;;;;5055675;28;20466;-69
2022/03/23 08:38:55;;;;;;;8.80;7.15;;;29.20;42.50;;;;;;5055578;28;20033;-69
2022/03/23 08:41:21;;;;;;;9.93;7.35;;;29.70;41.90;;;;;;5055848;28;20025;-60
2022/03/23 08:43:46;;;;;;;9.38;6.93;;;30.10;41.50;;;;;;5055817;28;20052;-61
2022/03/23 08:46:13;;;;;;;9.40;7.20;;;29.80;41.90;;;;;;5055783;28;20095;-63
2022/03/23 08:48:40;;;;;;;9.57;7.50;;;29.80;41.20;;;;;;5055671;28;20446;-64
2022/03/23 08:51:06;;;;;;;10.55;6.95;;;29.30;41.40;;;;;;5055335;28;20025;-67
2022/03/23 08:53:31;;;;;;;10.23;7.40;;;30.00;40.70;;;;;;5055352;28;20031;-67
2022/03/23 08:55:57;;;;;;;9.73;7.10;;;30.80;40.40;;;;;;5055368;28;20377;-67
2022/03/23 08:58:23;;;;;;;9.70;7.18;;;31.70;39.40;;;;;;5054852;28;20035;-69
2022/03/23 09:00:49;;;;;;;10.27;6.90;;;32.10;38.80;;;;;;5055297;28;20060;-69
2022/03/23 09:03:15;;;;;;;9.80;7.18;;;31.90;38.60;;;;;;5055137;28;20059;-67
2022/03/23 09:05:41;;;;;;;8.40;6.85;;;32.10;38.10;;;;;;5055167;28;20045;-71
2022/03/23 09:08:08;;;;;;;8.38;6.65;;;32.30;38.00;;;;;;5054975;28;20408;-67
2022/03/23 09:10:34;;;;;;;8.98;6.20;;;32.30;37.90;;;;;;5054894;28;20067;-67
2022/03/23 09:13:00;;;;;;;8.80;7.30;;;32.50;37.70;;;;;;5055205;28;20044;-68
2022/03/23 09:15:26;;;;;;;9.82;6.88;;;32.80;37.10;;;;;;5055495;28;20017;-69
2022/03/23 09:17:58;;;;;;;9.43;7.30;;;33.30;36.80;;;;;;5037026;28;20397;-69
2022/03/23 09:20:25;;;;;;;8.48;6.50;;;33.60;36.50;;;;;;5054945;28;20028;-69
2022/03/23 09:22:52;;;;;;;10.63;6.57;;;34.00;35.40;;;;;;5054846;28;20029;-69
2022/03/23 09:25:19;;;;;;;9.07;6.95;;;34.10;35.70;;;;;;5055055;28;20021;-68
2022/03/23 09:27:44;;;;;;;8.98;6.38;;;34.50;35.30;;;;;;5054763;28;20482;-67
2022/03/23 09:30:13;;;;;;;9.23;6.07;;;34.40;34.80;;;;;;5054679;28;20021;-68
2022/03/23 09:32:39;;;;;;;8.18;6.43;;;34.10;35.20;;;;;;5054904;28;20039;-67
2022/03/23 09:35:06;;;;;;;8.18;6.45;;;33.90;34.70;;;;;;5054602;28;20024;-68
2022/03/23 09:37:50;;;;;;;8.85;6.13;;;33.60;35.30;;;;;;5055060;28;20025;-68
2022/03/23 09:40:18;;;;;;;8.35;6.20;;;33.30;35.10;;;;;;5054781;28;20060;-67
2022/03/23 09:42:44;;;;;;;10.63;6.40;;;34.50;35.10;;;;;;5054738;28;20482;-68
2022/03/23 09:45:22;;;;;;;8.93;6.75;;;35.10;34.30;;;;;;5054369;28;20104;-67
2022/03/23 09:47:47;;;;;;;9.13;5.90;;;35.40;33.50;;;;;;5054666;28;20016;-69
2022/03/23 09:50:13;;;;;;;8.88;6.68;;;35.00;34.10;;;;;;5054156;28;20478;-69
2022/03/23 09:52:39;;;;;;;8.23;6.50;;;34.70;33.70;;;;;;5054274;28;20024;-68
2022/03/23 09:55:05;;;;;;;8.55;6.32;;;34.70;33.60;;;;;;5054345;28;20470;-69
2022/03/23 09:57:31;;;;;;;9.32;6.38;;;34.70;33.80;;;;;;5054692;28;20059;-69
2022/03/23 09:59:57;;;;;;;8.90;5.85;;;34.70;33.40;;;;;;5054373;28;20016;-69
2022/03/23 10:03:13;;;;;;;8.75;5.90;;;34.70;33.40;;;;;;5054319;28;20087;-69
2022/03/23 10:05:54;;;;;;;9.15;6.20;;;35.10;32.90;;;;;;5053979;28;20052;-67
2022/03/23 10:09:11;;;;;;;8.23;6.05;;;35.00;32.30;;;;;;5054225;28;20390;-67
2022/03/23 10:12:14;;;;;;;6.63;5.68;;;35.20;32.20;;;;;;5011830;28;20166;-69
2022/03/23 10:14:52;;;;;;;11.30;6.15;;;35.60;32.40;;;;;;5053942;28;20032;-68
2022/03/23 10:17:39;;;;;;;8.43;5.82;;;35.00;32.40;;;;;;5054125;28;20027;-68
2022/03/23 10:20:05;;;;;;;7.70;5.57;;;34.90;32.70;;;;;;5053818;28;20025;-69
2022/03/23 10:22:31;;;;;;;7.32;5.43;;;34.80;31.60;;;;;;5053948;28;20025;-68
2022/03/23 10:25:07;;;;;;;7.85;5.65;;;34.80;31.40;;;;;;5053930;28;20040;-68
2022/03/23 10:27:33;;;;;;;8.50;5.68;;;35.30;31.70;;;;;;5053933;28;20017;-67
2022/03/23 10:29:58;;;;;;;8.57;5.95;;;35.10;32.50;;;;;;5053550;28;20090;-67
2022/03/23 10:32:36;;;;;;;7.95;5.25;;;34.70;31.40;;;;;;5053818;28;20431;-69
2022/03/23 10:35:04;;;;;;;8.07;5.32;;;35.10;31.50;;;;;;5035411;28;20400;-69
2022/03/23 10:37:34;;;;;;;7.75;5.25;;;35.20;31.40;;;;;;5054047;28;20021;-67
2022/03/23 10:40:07;;;;;;;9.05;5.82;;;35.10;31.20;;;;;;5053941;28;20028;-68
2022/03/23 10:42:34;;;;;;;6.78;5.47;;;34.60;30.80;;;;;;5053389;28;20111;-68
2022/03/23 10:45:20;;;;;;;6.90;4.90;;;35.30;30.80;;;;;;5053359;28;20111;-67
2022/03/23 10:47:47;;;;;;;8.60;5.63;;;35.20;30.90;;;;;;5053892;28;20427;-67
2022/03/23 10:50:23;;;;;;;8.10;5.00;;;34.90;30.80;;;;;;5053493;28;20500;-67
2022/03/23 10:52:56;;;;;;;8.77;5.18;;;35.20;31.00;;;;;;5053441;28;20112;-67
2022/03/23 10:55:25;;;;;;;8.60;5.20;;;35.50;30.70;;;;;;5053459;28;20017;-67
2022/03/23 10:57:51;;;;;;;8.30;5.32;;;36.10;30.70;;;;;;5053449;28;20090;-68
2022/03/23 11:00:38;;;;;;;8.18;5.60;;;35.20;37.00;;;;;;5053179;28;20486;-69
2022/03/23 11:03:06;;;;;;;8.32;5.10;;;34.70;30.70;;;;;;5053229;28;20052;-67
2022/03/23 11:05:42;;;;;;;8.67;5.77;;;34.90;30.50;;;;;;5053182;28;20033;-67
2022/03/23 11:08:15;;;;;;;7.47;5.03;;;34.20;30.10;;;;;;5053122;28;20088;-68
2022/03/23 11:16:29;;;;;;;7.88;5.00;;;33.80;30.50;;;;;;5053342;28;20024;-67
2022/03/23 11:19:07;;;;;;;6.72;4.90;;;34.10;30.00;;;;;;5053326;28;20025;-67
2022/03/23 11:21:33;;;;;;;7.20;4.90;;;34.00;30.30;;;;;;5035089;28;20025;-68
2022/03/23 11:23:58;;;;;;;6.72;5.00;;;34.30;30.40;;;;;;5057334;28;20041;-67
2022/03/23 11:26:25;;;;;;;7.43;4.85;;;34.50;30.60;;;;;;5057566;28;20025;-67
2022/03/23 11:28:53;;;;;;;14.45;5.72;;;33.90;30.80;;;;;;5056945;28;20029;-67
2022/03/23 11:31:18;;;;;;;8.82;4.80;;;33.60;29.90;;;;;;5056820;28;20033;-67
2022/03/23 11:33:52;;;;;;;7.85;4.90;;;33.70;29.70;;;;;;5056860;28;20100;-67
2022/03/23 11:36:19;;;;;;;7.65;5.18;;;32.90;30.40;;;;;;5056853;28;20032;-67
2022/03/23 11:38:51;;;;;;;8.20;4.95;;;32.20;30.10;;;;;;5056729;28;20087;-67
2022/03/23 11:41:19;;;;;;;8.07;5.43;;;32.40;30.40;;;;;;5056988;28;20040;-70
2022/03/23 11:43:45;;;;;;;8.65;4.80;;;31.80;30.90;;;;;;5057050;28;20044;-67
2022/03/23 11:46:12;;;;;;;8.75;5.10;;;28.50;33.30;;;;;;5056439;28;20108;-67
2022/03/23 11:49:11;;;;;;;10.13;5.72;;;25.60;35.70;;;;;;5056520;28;20560;-66
2022/03/23 11:52:01;;;;;;;9.53;5.33;;;23.00;38.20;;;;;;5057074;28;20104;-67
2022/03/23 11:55:37;;;;;;;9.07;6.28;;;21.30;40.30;;;;;;5057071;28;20021;-67
2022/03/23 11:57:18;;;;;;;8.55;5.65;;;20.70;40.30;;;;;;5056197;28;20382;-67
2022/03/23 11:59:43;;;;;;;8.27;5.70;;;19.70;42.30;;;;;;5056652;28;20036;-67
2022/03/23 12:02:09;;;;;;;7.95;5.53;;;19.60;43.00;;;;;;5056327;28;20070;-66
2022/03/23 12:04:35;;;;;;;8.30;5.38;;;19.20;43.20;;;;;;5056321;28;20029;-67
2022/03/23 12:07:06;;;;;;;7.53;5.47;;;19.10;42.20;;;;;;5055972;28;20079;-70
2022/03/23 12:09:41;;;;;;;8.05;5.78;;;19.10;42.00;;;;;;5056520;28;20017;-71
2022/03/23 12:12:10;;;;;;;8.93;6.32;;;19.00;42.50;;;;;;5056517;28;20461;-67
2022/03/23 12:14:38;;;;;;;9.88;5.40;;;18.70;43.10;;;;;;5056379;28;20021;-67
2022/03/23 12:17:05;;;;;;;14.30;6.45;;;18.50;44.50;;;;;;5056636;28;20025;-67
2022/03/23 12:19:32;;;;;;;9.38;5.88;;;18.50;43.80;;;;;;5055996;28;20028;-67
2022/03/23 12:21:58;;;;;;;9.50;6.25;;;18.70;44.50;;;;;;5056010;28;20029;-67
2022/03/23 12:24:37;;;;;;;9.25;5.53;;;18.60;44.50;;;;;;5055940;28;20024;-67
2022/03/23 12:27:11;;;;;;;9.45;5.90;;;18.80;44.10;;;;;;5056201;28;20029;-67
2022/03/23 12:29:40;;;;;;;8.50;5.47;;;18.50;45.20;;;;;;5056151;28;20021;-67
2022/03/23 12:32:08;;;;;;;8.95;5.30;;;18.50;45.10;;;;;;5055788;28;20032;-67
2022/03/23 12:34:36;;;;;;;8.63;4.97;;;18.50;43.80;;;;;;5055059;28;20029;-67
2022/03/23 12:37:14;;;;;;;10.27;6.00;;;18.20;44.10;;;;;;5055717;28;20043;-67
2022/03/23 12:39:45;;;;;;;9.80;5.13;;;18.40;44.30;;;;;;5055940;28;20013;-67
2022/03/23 12:42:16;;;;;;;7.38;5.10;;;18.40;44.70;;;;;;5056200;28;20537;-67
2022/03/23 12:44:43;;;;;;;9.77;5.45;;;18.50;44.40;;;;;;5055601;28;20017;-67
2022/03/23 12:47:14;;;;;;;10.07;5.53;;;18.50;44.60;;;;;;5055531;28;20486;-67
2022/03/23 12:58:14;;;;;;;8.57;5.45;;;18.70;45.00;;;;;;5055362;28;20032;-67
2022/03/23 13:00:47;;;;;;;9.13;5.22;;;18.70;43.80;;;;;;5055855;28;20470;-69
2022/03/23 13:03:18;;;;;;;9.20;5.13;;;18.70;44.60;;;;;;5055521;28;20098;-67
2022/03/23 13:05:59;;;;;;;9.57;5.78;;;18.60;45.70;;;;;;5055225;28;20049;-67
2022/03/23 13:08:30;;;;;;;8.05;5.70;;;18.50;45.60;;;;;;5055128;28;20025;-67
2022/03/23 13:11:06;;;;;;;8.88;5.82;;;18.60;46.10;;;;;;5055584;28;20513;-67